createdAt,value
2017-09-01T00:01:49.747Z,12.48
2017-09-01T00:04:16.427Z,9.13
2017-09-01T00:06:43.088Z,12.80
2017-09-01T00:09:09.814Z,13.75
2017-09-01T00:11:36.459Z,14.75
2017-09-01T00:14:03.160Z,12.85
2017-09-01T00:16:29.819Z,10.25
2017-09-01T00:18:56.471Z,9.65
2017-09-01T00:21:23.131Z,9.70
2017-09-01T00:23:49.796Z,11.85
2017-09-01T00:26:16.460Z,10.82
2017-09-01T00:28:43.127Z,11.25
2017-09-01T00:31:09.815Z,11.23
2017-09-01T00:33:36.471Z,9.55
2017-09-01T00:36:03.162Z,12.65
2017-09-01T00:38:29.829Z,11.52
2017-09-01T00:40:56.501Z,10.15
2017-09-01T00:43:23.159Z,11.12
2017-09-01T00:45:49.824Z,14.52
2017-09-01T00:48:16.492Z,13.90
2017-09-01T00:50:43.155Z,11.73
2017-09-01T00:53:09.815Z,12.65
2017-09-01T00:55:36.484Z,15.57
2017-09-01T00:58:03.165Z,12.60
2017-09-01T01:00:29.892Z,10.80
2017-09-01T01:02:56.560Z,12.90
2017-09-01T01:05:23.223Z,10.88
2017-09-01T01:07:49.879Z,11.60
2017-09-01T01:10:16.587Z,17.62
2017-09-01T01:12:43.279Z,10.93
2017-09-01T01:15:09.943Z,11.73
2017-09-01T01:17:36.602Z,13.18
2017-09-01T01:20:03.272Z,12.35
2017-09-01T01:22:29.940Z,12.20
2017-09-01T01:24:56.608Z,11.82
2017-09-01T01:27:23.276Z,12.82
2017-09-01T01:29:49.940Z,11.10
2017-09-01T01:32:16.608Z,13.45
2017-09-01T01:34:43.299Z,17.17
2017-09-01T01:37:09.963Z,14.98
2017-09-01T01:39:36.662Z,13.13
2017-09-01T01:42:03.324Z,12.00
2017-09-01T01:44:30.044Z,14.23
2017-09-01T01:46:56.707Z,14.55
2017-09-01T01:49:23.367Z,18.95
2017-09-01T01:51:50.032Z,12.70
2017-09-01T01:54:16.691Z,15.02
2017-09-01T01:56:43.356Z,16.05
2017-09-01T01:59:10.019Z,19.85
2017-09-01T02:01:36.692Z,17.15
2017-09-01T02:04:03.360Z,18.10
2017-09-01T02:06:30.024Z,14.43
2017-09-01T02:08:56.687Z,15.20
2017-09-01T02:11:23.371Z,17.27
2017-09-01T02:13:50.040Z,13.13
2017-09-01T02:16:16.712Z,16.08
2017-09-01T02:18:43.371Z,16.70
2017-09-01T02:21:10.035Z,17.75
2017-09-01T02:23:36.726Z,15.18
2017-09-01T02:26:03.393Z,17.65
2017-09-01T02:28:30.080Z,18.00
2017-09-01T02:30:56.760Z,18.87
2017-09-01T02:33:23.459Z,15.15
2017-09-01T02:35:50.127Z,12.30
2017-09-01T02:38:16.811Z,20.48
2017-09-01T02:40:43.504Z,13.30
2017-09-01T02:43:10.167Z,15.68
2017-09-01T02:45:36.851Z,13.55
2017-09-01T02:48:03.529Z,13.43
2017-09-01T02:50:30.309Z,17.87
2017-09-01T02:52:56.980Z,13.68
2017-09-01T02:55:23.667Z,16.92
2017-09-01T02:57:50.340Z,13.30
2017-09-01T03:00:17.039Z,15.55
2017-09-01T03:02:43.699Z,19.62
2017-09-01T03:05:10.367Z,15.90
2017-09-01T03:07:37.031Z,15.95
2017-09-01T03:10:03.694Z,15.65
2017-09-01T03:12:30.379Z,19.27
2017-09-01T03:14:57.040Z,22.85
2017-09-01T03:17:23.727Z,17.35
2017-09-01T03:19:50.400Z,26.45
2017-09-01T03:22:17.097Z,20.17
2017-09-01T03:24:43.780Z,18.02
2017-09-01T03:27:10.468Z,18.48
2017-09-01T03:29:37.156Z,20.10
2017-09-01T03:32:03.863Z,21.10
2017-09-01T03:34:30.535Z,20.55
2017-09-01T03:36:57.203Z,20.62
2017-09-01T03:39:23.866Z,19.23
2017-09-01T03:41:50.528Z,22.95
2017-09-01T03:44:17.252Z,19.08
2017-09-01T03:46:43.923Z,23.95
2017-09-01T03:49:10.615Z,20.42
2017-09-01T03:51:37.271Z,26.05
2017-09-01T03:54:03.959Z,21.62
2017-09-01T03:56:30.644Z,20.73
2017-09-01T03:58:57.343Z,21.33
2017-09-01T04:01:24.003Z,21.10
2017-09-01T04:03:50.692Z,19.20
2017-09-01T04:06:17.375Z,15.88
2017-09-01T04:08:44.067Z,18.25
2017-09-01T04:11:10.743Z,17.23
2017-09-01T04:13:37.440Z,16.92
2017-09-01T04:16:04.107Z,17.52
2017-09-01T04:18:30.776Z,17.67
2017-09-01T04:20:57.436Z,14.00
2017-09-01T04:23:24.103Z,17.80
2017-09-01T04:25:50.763Z,15.45
2017-09-01T04:28:17.430Z,26.48
2017-09-01T04:30:44.131Z,22.27
2017-09-01T04:33:10.801Z,19.40
2017-09-01T04:35:37.507Z,15.02
2017-09-01T04:38:04.176Z,16.75
2017-09-01T04:40:30.859Z,16.95
2017-09-01T04:42:57.560Z,17.45
2017-09-01T04:45:24.223Z,15.27
2017-09-01T04:47:50.888Z,13.65
2017-09-01T04:50:17.556Z,13.65
2017-09-01T04:52:44.229Z,14.13
2017-09-01T04:55:10.891Z,12.75
2017-09-01T04:57:37.556Z,14.98
2017-09-01T05:00:04.220Z,13.60
2017-09-01T05:02:30.908Z,15.18
2017-09-01T05:04:57.576Z,12.75
2017-09-01T05:07:24.266Z,11.73
2017-09-01T05:09:50.935Z,14.18
2017-09-01T05:12:17.623Z,14.18
2017-09-01T05:14:44.294Z,13.93
2017-09-01T05:17:10.987Z,14.43
2017-09-01T05:19:37.656Z,15.35
2017-09-01T05:22:04.343Z,10.82
2017-09-01T05:24:31.008Z,19.37
2017-09-01T05:26:57.675Z,12.00
2017-09-01T05:29:24.340Z,11.50
2017-09-01T05:31:51.003Z,11.02
2017-09-01T05:34:17.663Z,12.23
2017-09-01T05:36:44.332Z,14.30
2017-09-01T05:39:10.995Z,15.38
2017-09-01T05:41:37.664Z,12.35
2017-09-01T05:44:04.351Z,11.23
2017-09-01T05:46:31.016Z,11.02
2017-09-01T05:48:57.707Z,10.25
2017-09-01T05:51:24.375Z,13.60
2017-09-01T05:53:51.068Z,10.00
2017-09-01T05:56:17.727Z,11.40
2017-09-01T05:58:44.393Z,10.48
2017-09-01T06:01:11.055Z,11.63
2017-09-01T06:03:37.715Z,13.77
2017-09-01T06:06:04.387Z,11.48
2017-09-01T06:08:31.045Z,9.68
2017-09-01T06:10:57.707Z,11.45
2017-09-01T06:13:24.363Z,10.73
2017-09-01T06:15:51.032Z,10.98
2017-09-01T06:18:17.687Z,9.88
2017-09-01T06:20:44.372Z,11.00
2017-09-01T06:23:11.031Z,11.15
2017-09-01T06:25:37.724Z,10.50
2017-09-01T06:28:04.383Z,14.63
2017-09-01T06:30:31.043Z,10.20
2017-09-01T06:32:57.705Z,11.57
2017-09-01T06:35:24.367Z,12.10
2017-09-01T06:37:51.028Z,11.75
2017-09-01T06:40:17.695Z,11.00
2017-09-01T06:42:44.363Z,14.70
2017-09-01T06:45:11.097Z,11.30
2017-09-01T06:47:37.782Z,11.17
2017-09-01T06:50:04.444Z,15.47
2017-09-01T06:52:31.111Z,12.40
2017-09-01T06:54:57.775Z,12.57
2017-09-01T06:57:24.435Z,10.17
2017-09-01T06:59:51.095Z,10.50
2017-09-01T07:02:17.756Z,11.03
2017-09-01T07:04:44.444Z,11.00
2017-09-01T07:07:11.104Z,10.80
2017-09-01T07:09:37.791Z,11.77
2017-09-01T07:12:04.464Z,11.20
2017-09-01T07:14:31.151Z,10.27
2017-09-01T07:16:57.811Z,11.60
2017-09-01T07:19:24.510Z,10.67
2017-09-01T07:21:51.168Z,10.17
2017-09-01T07:24:17.823Z,10.37
2017-09-01T07:26:44.488Z,11.27
2017-09-01T07:29:11.147Z,10.90
2017-09-01T07:31:37.803Z,9.23
2017-09-01T07:34:04.485Z,8.93
2017-09-01T07:36:31.168Z,12.43
2017-09-01T07:38:57.824Z,10.70
2017-09-01T07:41:24.511Z,8.90
2017-09-01T07:43:51.167Z,10.50
2017-09-01T07:46:17.848Z,7.83
2017-09-01T07:48:44.508Z,8.60
2017-09-01T07:51:11.190Z,7.73
2017-09-01T07:53:37.852Z,9.13
2017-09-01T07:56:04.532Z,8.70
2017-09-01T07:58:31.183Z,9.57
2017-09-01T08:00:57.835Z,11.03
2017-09-01T08:03:24.582Z,8.10
2017-09-01T08:05:51.231Z,9.90
2017-09-01T08:08:17.897Z,9.27
2017-09-01T08:10:44.555Z,8.60
2017-09-01T08:13:11.207Z,8.27
2017-09-01T08:15:37.868Z,8.23
2017-09-01T08:18:04.519Z,8.70
2017-09-01T08:20:31.175Z,11.17
2017-09-01T08:22:57.851Z,9.37
2017-09-01T08:25:24.508Z,9.23
2017-09-01T08:27:51.200Z,10.20
2017-09-01T08:30:17.860Z,10.50
2017-09-01T08:32:44.535Z,8.83
2017-09-01T08:35:11.196Z,10.27
2017-09-01T08:37:37.891Z,7.90
2017-09-01T08:40:04.549Z,8.80
2017-09-01T08:42:31.203Z,10.47
2017-09-01T08:44:58.206Z,9.70
2017-09-01T08:47:24.859Z,7.57
2017-09-01T08:49:51.536Z,8.17
2017-09-01T08:52:18.187Z,9.67
2017-09-01T08:54:44.864Z,8.10
2017-09-01T08:57:11.519Z,6.50
2017-09-01T08:59:38.210Z,9.87
2017-09-01T09:02:04.868Z,7.40
2017-09-01T09:04:31.555Z,6.30
2017-09-01T09:06:58.212Z,7.60
2017-09-01T09:09:24.954Z,8.10
2017-09-01T09:11:51.611Z,5.77
2017-09-01T09:14:18.267Z,5.93
2017-09-01T09:16:44.920Z,6.83
2017-09-01T09:19:11.580Z,10.43
2017-09-01T09:21:38.236Z,6.33
2017-09-01T09:24:04.891Z,6.27
2017-09-01T09:26:31.576Z,8.30
2017-09-01T09:28:58.251Z,5.50
2017-09-01T09:31:24.932Z,5.87
2017-09-01T09:33:51.596Z,8.23
2017-09-01T09:36:18.325Z,6.70
2017-09-01T09:38:45.059Z,6.67
2017-09-01T09:41:11.743Z,7.07
2017-09-01T09:43:38.404Z,9.30
2017-09-01T09:46:05.055Z,8.07
2017-09-01T09:48:31.709Z,9.80
2017-09-01T09:50:58.360Z,6.33
2017-09-01T09:53:25.012Z,6.90
2017-09-01T09:55:51.676Z,8.13
2017-09-01T09:58:18.347Z,6.10
2017-09-01T10:00:45.004Z,6.90
2017-09-01T10:03:11.664Z,8.70
2017-09-01T10:05:38.320Z,7.67
2017-09-01T10:08:05.047Z,7.60
2017-09-01T10:10:31.703Z,7.80
2017-09-01T10:12:58.380Z,7.80
2017-09-01T10:15:25.039Z,7.40
2017-09-01T10:17:51.723Z,11.10
2017-09-01T10:20:18.387Z,8.30
2017-09-01T10:22:45.039Z,7.53
2017-09-01T10:25:11.696Z,9.87
2017-09-01T10:27:38.446Z,7.17
2017-09-01T10:30:05.131Z,15.70
2017-09-01T10:32:31.783Z,8.13
2017-09-01T10:34:58.520Z,7.20
2017-09-01T10:37:25.180Z,7.43
2017-09-01T10:39:51.862Z,7.87
2017-09-01T10:42:18.510Z,7.17
2017-09-01T10:44:45.188Z,8.30
2017-09-01T10:47:11.839Z,7.23
2017-09-01T10:49:57.415Z,7.33
2017-09-01T10:52:29.856Z,7.27
2017-09-01T10:55:02.523Z,16.57
2017-09-01T10:57:34.999Z,17.67
2017-09-01T11:00:01.684Z,8.30
2017-09-01T11:02:28.360Z,7.33
2017-09-01T11:04:55.015Z,8.10
2017-09-01T11:07:21.672Z,8.50
2017-09-01T11:09:48.343Z,6.50
2017-09-01T11:12:15.019Z,6.57
2017-09-01T11:14:41.667Z,6.00
2017-09-01T11:17:08.323Z,5.77
2017-09-01T11:19:40.699Z,8.30
2017-09-01T11:22:13.312Z,5.77
2017-09-01T11:24:39.967Z,5.97
2017-09-01T11:27:06.661Z,5.57
2017-09-01T11:29:33.317Z,8.13
2017-09-01T11:31:59.967Z,5.63
2017-09-01T11:34:26.615Z,9.07
2017-09-01T11:36:53.320Z,5.50
2017-09-01T11:39:19.972Z,6.37
2017-09-01T11:41:46.713Z,6.47
2017-09-01T11:44:13.380Z,5.47
2017-09-01T11:46:40.044Z,8.80
2017-09-01T11:49:06.704Z,6.90
2017-09-01T11:51:33.367Z,6.90
2017-09-01T11:54:00.047Z,5.07
2017-09-01T11:56:26.704Z,7.50
2017-09-01T11:58:53.387Z,5.87
2017-09-01T12:01:20.106Z,7.00
2017-09-01T12:03:46.788Z,5.40
2017-09-01T12:06:13.450Z,7.63
2017-09-01T12:08:40.187Z,6.50
2017-09-01T12:11:06.847Z,9.20
2017-09-01T12:13:33.499Z,7.10
2017-09-01T12:16:00.159Z,6.90
2017-09-01T12:18:26.817Z,6.30
2017-09-01T12:20:53.504Z,7.30
2017-09-01T12:23:20.160Z,8.00
2017-09-01T12:25:46.844Z,9.60
2017-09-01T12:28:13.523Z,7.30
2017-09-01T12:30:40.206Z,6.47
2017-09-01T12:33:06.864Z,6.83
2017-09-01T12:35:33.544Z,7.60
2017-09-01T12:38:00.204Z,6.10
2017-09-01T12:40:26.891Z,13.30
2017-09-01T12:42:53.544Z,6.70
2017-09-01T12:45:20.195Z,6.03
2017-09-01T12:47:46.852Z,7.40
2017-09-01T12:50:13.520Z,7.43
2017-09-01T12:52:40.180Z,8.47
2017-09-01T12:55:06.845Z,8.00
2017-09-01T12:57:33.503Z,8.20
2017-09-01T13:00:00.209Z,6.73
2017-09-01T13:02:26.884Z,8.23
2017-09-01T13:04:53.540Z,7.37
2017-09-01T13:07:20.219Z,6.13
2017-09-01T13:09:47.309Z,7.47
2017-09-01T13:12:14.066Z,7.70
2017-09-01T13:14:40.723Z,10.30
2017-09-01T13:17:07.380Z,6.50
2017-09-01T13:19:34.031Z,6.87
2017-09-01T13:22:00.684Z,6.70
2017-09-01T13:24:27.339Z,5.80
2017-09-01T13:26:54.000Z,6.00
2017-09-01T13:29:20.675Z,6.07
2017-09-01T13:31:47.330Z,6.53
2017-09-01T13:34:14.028Z,6.10
2017-09-01T13:36:40.691Z,5.77
2017-09-01T13:39:07.343Z,5.83
2017-09-01T13:41:33.999Z,7.83
2017-09-01T13:44:00.655Z,7.43
2017-09-01T13:46:27.316Z,5.70
2017-09-01T13:48:53.967Z,6.37
2017-09-01T13:51:20.624Z,8.10
2017-09-01T13:53:47.280Z,6.67
2017-09-01T13:56:13.935Z,6.60
2017-09-01T13:58:40.584Z,7.97
2017-09-01T14:01:07.264Z,6.93
2017-09-01T14:03:33.924Z,6.67
2017-09-01T14:06:00.627Z,11.13
2017-09-01T14:08:27.288Z,11.10
2017-09-01T14:10:53.984Z,7.77
2017-09-01T14:13:20.644Z,11.27
2017-09-01T14:15:47.315Z,7.73
2017-09-01T14:18:13.967Z,7.23
2017-09-01T14:20:40.643Z,9.27
2017-09-01T14:23:07.294Z,7.50
2017-09-01T14:25:33.948Z,7.77
2017-09-01T14:28:00.613Z,9.17
2017-09-01T14:30:27.271Z,6.77
2017-09-01T14:32:53.923Z,6.70
2017-09-01T14:35:20.584Z,6.70
2017-09-01T14:37:47.260Z,7.40
2017-09-01T14:40:13.920Z,8.10
2017-09-01T14:42:40.595Z,8.20
2017-09-01T14:45:07.252Z,9.60
2017-09-01T14:47:33.911Z,9.30
2017-09-01T14:50:00.576Z,8.60
2017-09-01T14:52:27.231Z,8.90
2017-09-01T14:54:53.892Z,9.30
2017-09-01T14:57:20.559Z,8.60
2017-09-01T14:59:47.220Z,11.17
2017-09-01T15:02:13.883Z,10.83
2017-09-01T15:04:40.536Z,8.63
2017-09-01T15:07:07.207Z,10.03
2017-09-01T15:09:33.887Z,8.10
2017-09-01T15:12:00.539Z,8.03
2017-09-01T15:14:27.236Z,8.80
2017-09-01T15:16:53.900Z,10.30
2017-09-01T15:19:20.563Z,10.93
2017-09-01T15:21:47.220Z,8.10
2017-09-01T15:24:13.871Z,8.27
2017-09-01T15:26:40.534Z,7.93
2017-09-01T15:29:07.197Z,8.17
2017-09-01T15:31:33.855Z,9.63
2017-09-01T15:34:00.560Z,7.57
2017-09-01T15:36:27.215Z,7.80
2017-09-01T15:38:53.878Z,7.97
2017-09-01T15:41:20.536Z,8.70
2017-09-01T15:43:47.191Z,9.10
2017-09-01T15:46:13.871Z,8.37
2017-09-01T15:48:40.535Z,8.00
2017-09-01T15:51:07.188Z,6.80
2017-09-01T15:53:33.870Z,7.20
2017-09-01T15:56:00.523Z,6.80
2017-09-01T15:58:27.171Z,9.43
2017-09-01T16:00:53.829Z,8.93
2017-09-01T16:03:20.486Z,7.17
2017-09-01T16:05:47.148Z,8.10
2017-09-01T16:08:13.807Z,7.80
2017-09-01T16:10:40.459Z,9.33
2017-09-01T16:13:07.112Z,8.27
2017-09-01T16:15:33.768Z,8.07
2017-09-01T16:18:00.468Z,7.60
2017-09-01T16:20:27.125Z,7.60
2017-09-01T16:22:53.784Z,8.33
2017-09-01T16:25:20.445Z,7.30
2017-09-01T16:27:47.124Z,7.27
2017-09-01T16:30:13.775Z,9.10
2017-09-01T16:32:40.431Z,7.70
2017-09-01T16:35:07.079Z,9.13
2017-09-01T16:37:33.744Z,10.80
2017-09-01T16:40:00.404Z,8.50
2017-09-01T16:42:27.051Z,7.47
2017-09-01T16:44:53.731Z,7.73
2017-09-01T16:47:20.387Z,7.00
2017-09-01T16:49:47.056Z,8.37
2017-09-01T16:52:13.708Z,7.70
2017-09-01T16:54:40.375Z,8.40
2017-09-01T16:57:07.048Z,11.90
2017-09-01T16:59:33.712Z,8.73
2017-09-01T17:02:00.379Z,9.18
2017-09-01T17:04:27.039Z,8.98
2017-09-01T17:06:53.708Z,9.15
2017-09-01T17:09:20.395Z,9.50
2017-09-01T17:11:47.068Z,10.77
2017-09-01T17:14:13.740Z,11.70
2017-09-01T17:16:40.404Z,10.43
2017-09-01T17:19:07.067Z,9.88
2017-09-01T17:21:33.761Z,10.00
2017-09-01T17:24:00.428Z,10.65
2017-09-01T17:26:27.144Z,16.40
2017-09-01T17:28:53.816Z,11.50
2017-09-01T17:31:20.471Z,13.57
2017-09-01T17:33:47.268Z,10.57
2017-09-01T17:36:13.955Z,11.20
2017-09-01T17:38:40.648Z,10.93
2017-09-01T17:41:07.315Z,10.98
2017-09-01T17:43:33.999Z,10.50
2017-09-01T17:46:00.659Z,10.13
2017-09-01T17:48:27.340Z,9.82
2017-09-01T17:50:54.007Z,10.88
2017-09-01T17:53:20.696Z,10.20
2017-09-01T17:55:47.363Z,10.10
2017-09-01T17:58:14.048Z,9.55
2017-09-01T18:00:40.700Z,9.00
2017-09-01T18:03:07.371Z,8.75
2017-09-01T18:05:34.046Z,10.20
2017-09-01T18:08:00.739Z,10.48
2017-09-01T18:10:27.403Z,10.80
2017-09-01T18:12:54.087Z,15.13
2017-09-01T18:15:20.751Z,10.65
2017-09-01T18:17:47.439Z,11.93
2017-09-01T18:20:14.107Z,14.30
2017-09-01T18:22:40.819Z,13.93
2017-09-01T18:25:07.483Z,14.63
2017-09-01T18:27:34.146Z,15.40
2017-09-01T18:30:00.807Z,13.30
2017-09-01T18:32:27.468Z,13.45
2017-09-01T18:34:54.131Z,15.88
2017-09-01T18:37:20.804Z,16.10
2017-09-01T18:39:47.480Z,15.43
2017-09-01T18:42:14.143Z,16.83
2017-09-01T18:44:40.826Z,16.10
2017-09-01T18:47:07.492Z,14.95
2017-09-01T18:49:34.186Z,18.10
2017-09-01T18:52:00.891Z,17.23
2017-09-01T18:54:27.592Z,17.30
2017-09-01T18:56:54.255Z,16.23
2017-09-01T18:59:21.017Z,16.37
2017-09-01T19:01:47.687Z,16.92
2017-09-01T19:04:14.375Z,17.60
2017-09-01T19:06:41.043Z,17.83
2017-09-01T19:09:07.746Z,17.75
2017-09-01T19:11:34.417Z,19.00
2017-09-01T19:14:01.194Z,18.40
2017-09-01T19:16:27.855Z,17.37
2017-09-01T19:18:54.548Z,18.95
2017-09-01T19:21:21.228Z,19.40
2017-09-01T19:23:47.943Z,19.73
2017-09-01T19:26:14.621Z,20.67
2017-09-01T19:28:41.295Z,20.60
2017-09-01T19:31:07.956Z,19.45
2017-09-01T19:33:34.623Z,19.77
2017-09-01T19:36:01.288Z,19.80
2017-09-01T19:38:27.951Z,25.42
2017-09-01T19:40:54.635Z,21.10
2017-09-01T19:43:21.388Z,20.83
2017-09-01T19:45:48.056Z,20.70
2017-09-01T19:48:14.719Z,21.08
2017-09-01T19:50:41.427Z,22.27
2017-09-01T19:53:08.096Z,20.35
2017-09-01T19:55:34.781Z,19.90
2017-09-01T19:58:01.443Z,18.73
2017-09-01T20:00:28.127Z,18.87
2017-09-01T20:02:54.788Z,20.30
2017-09-01T20:05:21.475Z,18.42
2017-09-01T20:07:48.142Z,18.48
2017-09-01T20:10:14.828Z,19.58
2017-09-01T20:12:41.491Z,19.15
2017-09-01T20:15:08.180Z,19.62
2017-09-01T20:17:34.859Z,19.25
2017-09-01T20:20:01.552Z,18.42
2017-09-01T20:22:28.220Z,19.27
2017-09-01T20:24:54.939Z,18.80
2017-09-01T20:27:21.600Z,18.58
2017-09-01T20:29:49.099Z,19.23
2017-09-01T20:32:15.764Z,19.90
2017-09-01T20:34:42.428Z,17.90
2017-09-01T20:37:09.106Z,20.10
2017-09-01T20:39:35.795Z,19.12
2017-09-01T20:42:02.460Z,20.20
2017-09-01T20:44:29.135Z,21.27
2017-09-01T20:46:55.800Z,21.05
2017-09-01T20:49:22.472Z,20.67
2017-09-01T20:51:49.131Z,19.40
2017-09-01T20:54:15.796Z,19.00
2017-09-01T20:56:42.463Z,18.58
2017-09-01T20:59:09.128Z,18.52
2017-09-01T21:01:35.792Z,18.08
2017-09-01T21:04:02.456Z,16.52
2017-09-01T21:06:29.120Z,17.87
2017-09-01T21:08:55.783Z,15.95
2017-09-01T21:11:22.443Z,14.90
2017-09-01T21:13:49.108Z,16.15
2017-09-01T21:16:15.815Z,16.67
2017-09-01T21:18:42.477Z,16.65
2017-09-01T21:21:09.162Z,16.35
2017-09-01T21:23:35.827Z,16.70
2017-09-01T21:26:02.512Z,15.75
2017-09-01T21:28:29.179Z,16.42
2017-09-01T21:30:55.847Z,16.33
2017-09-01T21:33:22.511Z,16.27
2017-09-01T21:35:49.177Z,16.23
2017-09-01T21:38:15.844Z,16.15
2017-09-01T21:40:42.508Z,15.52
2017-09-01T21:43:09.171Z,15.50
2017-09-01T21:45:35.835Z,15.52
2017-09-01T21:48:02.505Z,16.00
2017-09-01T21:50:29.182Z,16.20
2017-09-01T21:52:55.888Z,15.20
2017-09-01T21:55:22.555Z,14.63
2017-09-01T21:57:49.224Z,14.60
2017-09-01T22:00:15.891Z,14.45
2017-09-01T22:02:42.551Z,17.08
2017-09-01T22:05:09.211Z,14.30
2017-09-01T22:07:35.880Z,15.05
2017-09-01T22:10:02.551Z,15.43
2017-09-01T22:12:29.217Z,16.02
2017-09-01T22:14:55.882Z,16.00
2017-09-01T22:17:22.559Z,14.57
2017-09-01T22:19:49.224Z,15.38
2017-09-01T22:22:15.883Z,14.95
2017-09-01T22:24:42.547Z,15.05
2017-09-01T22:27:09.207Z,15.20
2017-09-01T22:29:35.911Z,14.95
2017-09-01T22:32:02.579Z,15.55
2017-09-01T22:34:29.244Z,13.38
2017-09-01T22:36:55.908Z,15.57
2017-09-01T22:39:22.575Z,13.77
2017-09-01T22:41:49.235Z,15.10
2017-09-01T22:44:15.900Z,15.82
2017-09-01T22:46:42.591Z,14.98
2017-09-01T22:49:09.255Z,14.82
2017-09-01T22:51:35.944Z,12.75
2017-09-01T22:54:02.607Z,13.93
2017-09-01T22:56:29.312Z,12.50
2017-09-01T22:58:55.983Z,13.05
2017-09-01T23:01:22.651Z,12.40
2017-09-01T23:03:49.341Z,13.40
2017-09-01T23:06:15.999Z,11.70
2017-09-01T23:08:42.695Z,13.10
2017-09-01T23:11:09.355Z,11.95
2017-09-01T23:13:36.050Z,13.25
2017-09-01T23:16:02.715Z,12.20
2017-09-01T23:18:29.400Z,12.30
2017-09-01T23:20:56.068Z,11.43
2017-09-01T23:23:22.756Z,12.00
2017-09-01T23:25:50.018Z,11.20
2017-09-01T23:28:16.707Z,14.63
2017-09-01T23:30:43.375Z,11.57
2017-09-01T23:33:10.079Z,12.37
2017-09-01T23:35:36.740Z,13.70
2017-09-01T23:38:03.403Z,12.25
2017-09-01T23:40:30.072Z,12.60
2017-09-01T23:42:56.736Z,12.40
2017-09-01T23:45:23.430Z,12.77
2017-09-01T23:47:50.087Z,11.80
2017-09-01T23:50:16.801Z,11.60
2017-09-01T23:52:43.472Z,11.85
2017-09-01T23:55:10.160Z,11.63
2017-09-01T23:57:36.823Z,11.95
